Estación Meteorológica Peña el Pijo (Robertgarden) [ 12/11/18 10:37:24 CET ]

Fecha Hora Presion(HPa) Temp (°C) Humedad % Rocio (°C) Viento ( m/s) Direccion Lluvia 1Hora(mm) Lluvia 24H(mm) LLuvia Total(mm)
2018-Dec-07 01:01:45 1017.000 5.0 63 -1.5         154.88
2018-Dec-07 02:01:42 1016.800 4.9 61 -2.0         154.88
2018-Dec-07 03:01:41 1016.300 4.4 63 -2.1         154.88
2018-Dec-07 04:05:16 1016.100 3.3 65 -2.7         154.88
2018-Dec-07 05:01:58 1016.000 1.3 69 -3.8         154.88
2018-Dec-07 06:01:43 1015.800 2.6 71 -2.1         154.88
2018-Dec-07 07:01:58 1016.000 2.4 70 -2.5         154.88
2018-Dec-07 08:01:37 1016.400 1.9 72 -2.6         154.88
2018-Dec-07 09:01:38 1016.700 1.1 73 -3.3         154.88
2018-Dec-07 10:01:50 1017.100 8.4 64 2.0         154.88
2018-Dec-07 11:01:48 1017.000 15.3 46 3.7         154.88
2018-Dec-07 12:01:52 1016.500 19.3 31 1.7         154.88
2018-Dec-07 13:01:38 1015.700 20.3 23 -1.7         154.88
2018-Dec-07 14:01:44 1016.000 21.9 19 -3.0         154.88
2018-Dec-07 15:01:37 1015.300 22.0 19 -2.9         154.88
2018-Dec-07 16:01:42 1015.700 20.7 20 -3.9         154.88
2018-Dec-07 17:01:46 1015.600 17.1 24 -3.9         154.88
2018-Dec-07 18:01:31 1015.900 12.9 31 -3.6         154.88
2018-Dec-07 19:01:42 1016.700 9.5 38 -4.2         154.88
2018-Dec-07 20:01:50 1016.900 6.2 47 -4.3         154.88
2018-Dec-07 21:01:34 1016.800 5.8 51 -3.6         154.88
2018-Dec-07 22:01:49 1017.000 7.0 47 -3.6         154.88
2018-Dec-07 23:01:45 1016.900 6.6 47 -4.0         154.88

Temperatura Máxima:22°    Temperatura Mínima:
Presión Máxima:1017.100 Hpa    Presión Mínima:1015.300 Hpa


Volver